Time;durP1;ratioP1;P1;durP2;ratioP2;P2;SDS_P1;SDS_P2;PMS_P1;PMS_P2;Temp;Humidity;BMP_temperature;BMP_pressure;BME280_temperature;BME280_humidity;BME280_pressure;Samples;Min_cycle;Max_cycle;Signal;HPM_P1;HPM_P2
2023/03/28 00:04:36;;;;;;;2.47;0.87;;;;;;;3.47;100.00;98650.69;18342992;32;20058;-56
2023/03/28 00:14:38;;;;;;;3.50;0.90;;;;;;;3.47;100.00;98656.03;18356401;32;20057;-54
2023/03/28 00:24:41;;;;;;;0.93;0.60;;;;;;;3.44;100.00;98659.06;18355830;32;20106;-56
2023/03/28 00:34:43;;;;;;;1.33;0.80;;;;;;;3.33;100.00;98671.16;18358801;32;20073;-57
2023/03/28 00:44:52;;;;;;;1.53;0.70;;;;;;;3.10;100.00;98664.28;18366145;32;20073;-55
2023/03/28 00:54:57;;;;;;;1.03;0.63;;;;;;;2.92;100.00;98661.28;18365822;32;20402;-55
2023/03/28 01:05:02;;;;;;;2.47;1.00;;;;;;;2.73;100.00;98666.31;18365888;32;20101;-56
2023/03/28 01:15:05;;;;;;;;;;;;;;;2.61;100.00;98674.00;18365019;32;20112;-55
2023/03/28 01:25:27;;;;;;;1.57;0.80;;;;;;;2.48;100.00;98666.72;18364390;32;20012;-55
2023/03/28 01:35:57;;;;;;;2.63;0.90;;;;;;;2.37;100.00;98664.56;18363981;32;20081;-55
2023/03/28 01:46:06;;;;;;;2.90;0.80;;;;;;;2.37;100.00;98652.06;18363515;32;20068;-52
2023/03/28 01:56:37;;;;;;;1.60;0.80;;;;;;;2.35;100.00;98653.25;18349120;32;20061;-55
2023/03/28 02:06:41;;;;;;;2.23;1.07;;;;;;;2.37;100.00;98653.88;18362204;32;20393;-57
2023/03/28 02:16:48;;;;;;;1.37;0.87;;;;;;;2.35;100.00;98648.75;18361734;32;20053;-56
2023/03/28 02:26:53;;;;;;;2.17;0.70;;;;;;;2.31;100.00;98647.47;18360988;32;20058;-57
2023/03/28 02:37:11;;;;;;;2.90;0.80;;;;;;;2.32;100.00;98630.44;18360684;32;20064;-54
2023/03/28 02:47:32;;;;;;;1.73;1.00;;;;;;;2.34;100.00;98619.56;18346555;32;20073;-55
2023/03/28 02:57:48;;;;;;;1.93;0.83;;;;;;;2.29;100.00;98622.84;18359478;32;20072;-56
2023/03/28 03:07:50;;;;;;;4.87;0.90;;;;;;;1.97;100.00;98617.00;18359372;32;20058;-55
2023/03/28 03:17:53;;;;;;;1.50;0.90;;;;;;;1.57;100.00;98608.63;18359017;32;20058;-55
2023/03/28 03:27:55;;;;;;;2.50;1.07;;;;;;;1.20;100.00;98590.97;18358320;32;20069;-52
2023/03/28 03:37:59;;;;;;;3.10;1.00;;;;;;;0.86;100.00;98589.72;18358224;32;20072;-55
2023/03/28 03:48:02;;;;;;;2.23;1.10;;;;;;;0.53;100.00;98588.25;18342886;32;20103;-56
2023/03/28 03:58:06;;;;;;;2.60;0.90;;;;;;;0.28;100.00;98587.69;18357162;32;20050;-55
2023/03/28 04:08:08;;;;;;;2.23;1.20;;;;;;;0.09;100.00;98597.00;18358274;32;20088;-54
2023/03/28 04:18:10;;;;;;;1.57;0.83;;;;;;;-0.17;100.00;98593.69;18367482;32;20049;-55
2023/03/28 04:28:14;;;;;;;1.63;1.07;;;;;;;-0.38;100.00;98605.00;18366701;32;20117;-55
2023/03/28 04:38:17;;;;;;;1.90;1.17;;;;;;;-0.56;100.00;98604.47;18366929;32;20101;-56
2023/03/28 04:48:23;;;;;;;;;;;;;;;-0.69;100.00;98618.28;18366349;32;20061;-52
2023/03/28 04:58:25;;;;;;;3.43;1.50;;;;;;;-0.90;100.00;98626.88;18365834;32;19981;-56
2023/03/28 05:08:28;;;;;;;3.67;1.30;;;;;;;-1.03;100.00;98628.25;18364918;32;20084;-55
2023/03/28 05:18:31;;;;;;;2.17;1.23;;;;;;;-1.12;100.00;98655.00;18364523;32;20066;-53
2023/03/28 05:28:33;;;;;;;2.67;1.50;;;;;;;-1.22;100.00;98653.34;18363854;32;20092;-53
2023/03/28 05:38:36;;;;;;;1.57;1.17;;;;;;;-1.26;100.00;98657.34;18363841;32;20077;-56
2023/03/28 05:48:38;;;;;;;2.43;1.30;;;;;;;-1.27;100.00;98662.81;18363000;32;20401;-54
2023/03/28 05:58:41;;;;;;;4.67;1.43;;;;;;;-1.22;100.00;98671.94;18362436;32;20054;-57
2023/03/28 06:08:44;;;;;;;2.73;1.63;;;;;;;-1.09;100.00;98681.19;18362006;32;20066;-55
2023/03/28 06:18:47;;;;;;;1.77;1.30;;;;;;;-0.89;100.00;98685.09;18361629;32;20072;-56
2023/03/28 06:28:50;;;;;;;3.53;2.53;;;;;;;-0.50;100.00;98690.59;18347046;32;20080;-55
2023/03/28 06:38:53;;;;;;;5.30;2.73;;;;;;;-0.08;100.00;98692.00;18359636;32;20369;-55
2023/03/28 06:48:57;;;;;;;2.87;2.10;;;;;;;0.38;100.00;98691.19;18359995;32;20054;-55
2023/03/28 06:58:59;;;;;;;3.57;1.87;;;;;;;0.85;100.00;98690.09;18359686;32;20054;-55
2023/03/28 07:09:02;;;;;;;4.53;3.10;;;;;;;1.37;100.00;98680.38;18344956;32;20357;-53
2023/03/28 07:19:07;;;;;;;3.33;2.40;;;;;;;1.90;100.00;98688.13;18344020;32;20088;-56
2023/03/28 07:29:10;;;;;;;4.03;2.93;;;;;;;2.42;100.00;98691.50;18343809;32;20119;-55
2023/03/28 07:39:12;;;;;;;3.40;2.60;;;;;;;2.95;100.00;98701.78;18343545;32;20042;-56
2023/03/28 07:49:15;;;;;;;4.70;2.37;;;;;;;3.44;100.00;98709.88;18367331;32;20050;-56
2023/03/28 07:59:17;;;;;;;3.33;2.50;;;;;;;3.93;100.00;98698.13;18368594;32;20065;-56
2023/03/28 08:09:20;;;;;;;4.03;2.33;;;;;;;4.34;100.00;98715.94;18367900;32;20501;-56
2023/03/28 08:19:23;;;;;;;5.63;2.33;;;;;;;4.74;100.00;98710.63;18367481;32;20050;-57
2023/03/28 08:29:26;;;;;;;5.40;2.67;;;;;;;5.18;100.00;98710.16;18366455;32;20058;-56
2023/03/28 08:39:28;;;;;;;5.90;2.47;;;;;;;5.59;100.00;98714.38;18340049;32;20057;-57
2023/03/28 08:49:37;;;;;;;6.93;2.57;;;;;;;5.92;100.00;98711.56;18366080;32;20061;-56
2023/03/28 08:59:58;;;;;;;6.67;1.80;;;;;;;6.30;100.00;98715.28;18365056;32;20085;-56
2023/03/28 09:10:05;;;;;;;2.40;1.83;;;;;;;6.78;95.80;98717.44;18365173;32;20362;-56
2023/03/28 09:20:20;;;;;;;4.40;2.30;;;;;;;7.03;86.91;98700.47;18350813;32;20093;-56
2023/03/28 09:30:28;;;;;;;3.43;2.20;;;;;;;7.40;85.82;98689.75;18364135;32;20084;-57
2023/03/28 09:40:33;;;;;;;6.07;2.23;;;;;;;7.75;82.13;98693.69;18363858;32;20062;-56
2023/03/28 09:50:35;;;;;;;2.28;1.52;;;;;;;7.95;71.49;98702.31;18349032;32;20050;-56
2023/03/28 10:00:46;;;;;;;2.87;1.40;;;;;;;8.19;67.91;98686.25;18362642;32;20072;-57
2023/03/28 10:11:05;;;;;;;1.50;1.20;;;;;;;8.95;68.22;98683.84;18361259;32;20068;-54
2023/03/28 10:21:23;;;;;;;1.50;1.20;;;;;;;9.39;67.09;98675.37;18361502;32;20113;-57
2023/03/28 10:31:29;;;;;;;1.67;1.17;;;;;;;9.12;65.24;98672.34;18361051;32;20077;-57
2023/03/28 10:41:32;;;;;;;2.10;1.30;;;;;;;9.52;61.26;98660.78;18355585;32;20055;-56
2023/03/28 10:51:37;;;;;;;2.60;1.30;;;;;;;9.62;60.62;98670.97;18296595;32;20387;-55
2023/03/28 11:02:06;;;;;;;2.87;1.23;;;;;;;10.34;59.27;98650.69;18282790;32;20077;-55
2023/03/28 11:12:28;;;;;;;3.53;1.03;;;;;;;10.96;56.07;98663.34;18266706;32;20054;-56
2023/03/28 11:22:59;;;;;;;2.60;1.30;;;;;;;11.59;54.89;98656.88;18295075;32;20141;-56
2023/03/28 11:33:21;;;;;;;2.80;1.00;;;;;;;11.69;51.38;98654.28;18230941;32;20058;-56
2023/03/28 11:43:28;;;;;;;3.53;1.20;;;;;;;11.65;52.41;98631.50;18230871;32;20113;-57
2023/03/28 11:53:41;;;;;;;2.00;1.37;;;;;;;11.68;50.01;98628.25;18231256;32;20428;-56
2023/03/28 12:03:54;;;;;;;3.87;1.60;;;;;;;12.00;49.22;98611.28;18230664;32;20059;-57
2023/03/28 12:14:05;;;;;;;2.67;1.10;;;;;;;12.37;45.29;98577.97;18228927;32;20062;-57
2023/03/28 12:24:24;;;;;;;4.40;1.77;;;;;;;12.86;48.00;98574.25;18228780;32;20106;-57
2023/03/28 12:34:33;;;;;;;2.97;1.27;;;;;;;13.39;42.66;98568.84;18236624;32;20460;-57
2023/03/28 12:44:50;;;;;;;1.75;1.25;;;;;;;12.81;44.42;98555.22;18240482;32;20051;-54
2023/03/28 12:54:55;;;;;;;1.92;1.12;;;;;;;13.08;45.72;98537.97;18239191;32;20441;-57
2023/03/28 13:05:09;;;;;;;2.22;1.35;;;;;;;13.82;44.47;98531.41;18237638;32;20076;-58
2023/03/28 13:15:15;;;;;;;3.93;1.27;;;;;;;14.12;44.03;98520.84;18238180;32;20050;-55
2023/03/28 13:25:25;;;;;;;1.92;1.27;;;;;;;14.12;42.76;98504.53;18243621;32;20090;-54
2023/03/28 13:35:39;;;;;;;1.62;1.00;;;;;;;14.46;41.41;98504.75;18274050;32;20062;-57
2023/03/28 13:45:42;;;;;;;2.55;1.42;;;;;;;14.69;39.96;98473.44;18285826;32;20062;-57
2023/03/28 13:55:45;;;;;;;3.10;1.33;;;;;;;14.60;37.90;98464.16;18299017;32;20050;-56
2023/03/28 14:05:48;;;;;;;1.23;0.80;;;;;;;15.17;40.26;98445.72;18298810;32;20117;-57
2023/03/28 14:15:52;;;;;;;3.00;1.30;;;;;;;15.71;36.66;98432.28;18284482;32;20153;-56
2023/03/28 14:26:01;;;;;;;2.72;1.60;;;;;;;15.75;37.00;98425.16;18297481;32;20057;-55
2023/03/28 14:36:04;;;;;;;3.05;1.25;;;;;;;15.59;38.86;98419.84;18297337;32;20481;-56
2023/03/28 14:46:09;;;;;;;2.83;1.30;;;;;;;15.65;38.91;98420.59;18296785;32;20096;-55
2023/03/28 14:56:21;;;;;;;1.80;1.42;;;;;;;15.57;37.67;98402.94;18295743;32;20051;-56
2023/03/28 15:06:24;;;;;;;2.00;1.30;;;;;;;15.89;38.89;98382.50;18296018;32;20050;-57
2023/03/28 15:16:29;;;;;;;1.87;1.37;;;;;;;16.17;37.10;98368.31;18295461;32;20054;-57
2023/03/28 15:26:34;;;;;;;;;;;;;;;15.63;37.42;98351.91;18295027;32;20065;-57
2023/03/28 15:36:47;;;;;;;2.15;1.23;;;;;;;14.75;38.01;98340.84;18281366;32;19954;-57
2023/03/28 15:46:52;;;;;;;1.30;0.90;;;;;;;14.95;37.50;98353.53;18294270;32;20145;-57
2023/03/28 15:56:56;;;;;;;2.15;0.75;;;;;;;15.36;39.47;98338.78;18280474;32;20117;-57
2023/03/28 16:07:12;;;;;;;2.00;1.00;;;;;;;15.24;38.27;98314.63;18299634;32;20081;-58
2023/03/28 16:17:15;;;;;;;0.85;0.70;;;;;;;14.84;39.82;98303.75;18304442;32;20058;-56
2023/03/28 16:27:19;;;;;;;2.25;1.02;;;;;;;14.12;40.27;98281.53;18289969;32;20102;-56
2023/03/28 16:37:22;;;;;;;1.08;0.82;;;;;;;13.71;45.11;98279.72;18303679;32;20042;-56
2023/03/28 16:47:27;;;;;;;1.33;0.73;;;;;;;13.32;47.50;98275.69;18302632;32;20497;-55
2023/03/28 16:57:30;;;;;;;2.47;1.10;;;;;;;12.84;48.61;98265.09;18302358;32;20050;-57
2023/03/28 17:07:33;;;;;;;2.15;0.75;;;;;;;12.38;48.52;98281.28;18301614;32;20094;-56
2023/03/28 17:17:40;;;;;;;1.87;1.00;;;;;;;11.88;52.31;98259.12;18301336;32;20046;-55
2023/03/28 17:27:42;;;;;;;2.62;1.15;;;;;;;11.36;52.99;98234.44;18286331;32;20149;-55
2023/03/28 17:37:46;;;;;;;2.00;1.00;;;;;;;10.95;53.00;98217.09;18300568;32;20331;-56
2023/03/28 17:47:48;;;;;;;1.57;0.80;;;;;;;10.39;54.97;98231.75;18286011;32;20058;-56
2023/03/28 17:57:51;;;;;;;1.53;0.90;;;;;;;9.87;57.42;98229.50;18285975;32;20109;-57
2023/03/28 18:07:55;;;;;;;2.20;0.93;;;;;;;9.40;60.73;98207.34;18285013;32;20434;-57
2023/03/28 18:18:00;;;;;;;1.27;1.00;;;;;;;9.08;58.49;98218.72;18298299;32;20062;-57
2023/03/28 18:28:05;;;;;;;1.13;0.80;;;;;;;8.83;62.08;98197.59;18296791;32;20050;-56
2023/03/28 18:38:08;;;;;;;1.05;0.70;;;;;;;8.65;67.76;98199.47;18297364;32;20042;-58
2023/03/28 18:48:11;;;;;;;2.27;0.97;;;;;;;8.45;68.46;98185.66;18296801;32;20086;-57
2023/03/28 18:58:14;;;;;;;1.67;1.10;;;;;;;8.28;69.10;98177.50;18296698;32;20121;-57
2023/03/28 19:08:17;;;;;;;1.87;1.07;;;;;;;8.13;71.21;98165.41;18296377;32;20387;-57
2023/03/28 19:18:20;;;;;;;2.10;0.90;;;;;;;8.10;73.71;98176.66;18295475;32;20473;-57
2023/03/28 19:28:23;;;;;;;1.40;1.00;;;;;;;7.97;72.20;98193.94;18268220;32;20474;-57
2023/03/28 19:38:26;;;;;;;3.73;0.90;;;;;;;7.90;74.47;98195.13;18280672;32;20076;-53
2023/03/28 19:48:30;;;;;;;1.73;0.97;;;;;;;7.82;77.39;98201.69;18294184;32;20094;-56
2023/03/28 19:58:33;;;;;;;2.03;1.10;;;;;;;7.69;79.20;98193.88;18280005;32;20046;-54
2023/03/28 20:08:36;;;;;;;4.37;0.97;;;;;;;7.61;83.79;98238.97;18293551;32;20403;-57
2023/03/28 20:18:39;;;;;;;1.83;1.10;;;;;;;7.54;89.40;98213.25;18293303;32;20058;-57
2023/03/28 20:28:45;;;;;;;3.13;1.40;;;;;;;7.49;94.83;98189.72;18279142;32;20399;-56
2023/03/28 20:38:47;;;;;;;2.40;1.63;;;;;;;7.47;90.50;98224.13;18292657;32;20054;-55
2023/03/28 20:48:51;;;;;;;2.63;1.33;;;;;;;7.52;86.68;98229.59;18278614;32;20058;-57
2023/03/28 20:58:56;;;;;;;4.17;1.70;;;;;;;7.59;87.45;98227.63;18302354;32;20078;-56
2023/03/28 21:09:03;;;;;;;3.03;1.90;;;;;;;7.56;92.74;98208.44;18302012;32;20340;-57
2023/03/28 21:19:06;;;;;;;2.40;1.30;;;;;;;7.53;90.97;98176.62;18301342;32;20465;-57
2023/03/28 21:29:09;;;;;;;1.60;0.93;;;;;;;7.55;88.81;98164.56;18274438;32;20153;-57
2023/03/28 21:39:12;;;;;;;3.13;0.90;;;;;;;7.59;87.02;98116.44;18300566;32;20097;-56
2023/03/28 21:49:16;;;;;;;1.73;1.00;;;;;;;7.63;82.71;98114.91;18300085;32;20102;-55
2023/03/28 21:59:19;;;;;;;2.07;0.80;;;;;;;7.67;80.68;98113.38;18299324;32;20046;-56
2023/03/28 22:09:21;;;;;;;1.10;0.80;;;;;;;7.67;83.75;98101.81;18298766;32;20410;-55
2023/03/28 22:19:28;;;;;;;0.90;0.67;;;;;;;7.62;86.69;98094.47;18298344;32;20049;-56
2023/03/28 22:29:31;;;;;;;1.70;0.93;;;;;;;7.57;90.90;98081.72;18298092;32;20080;-57
2023/03/28 22:39:34;;;;;;;1.97;1.07;;;;;;;7.51;91.43;98077.31;18297486;32;20117;-56
2023/03/28 22:49:38;;;;;;;2.83;1.13;;;;;;;7.49;84.67;98049.00;18296957;32;20062;-56
2023/03/28 22:59:40;;;;;;;2.57;1.40;;;;;;;7.58;91.63;98036.78;18282057;32;20398;-56
2023/03/28 23:09:43;;;;;;;3.60;1.47;;;;;;;7.51;94.97;98047.69;18282508;32;20070;-56
2023/03/28 23:19:45;;;;;;;1.90;1.00;;;;;;;7.49;97.85;98070.53;18295138;32;20194;-55
2023/03/28 23:29:50;;;;;;;2.70;1.47;;;;;;;7.41;95.54;98061.78;18295085;32;20054;-56
2023/03/28 23:39:54;;;;;;;3.87;1.53;;;;;;;7.36;92.75;98079.69;18294914;32;20441;-57
2023/03/28 23:49:56;;;;;;;5.10;1.27;;;;;;;7.32;95.43;98092.81;18280430;32;20459;-57
2023/03/28 23:59:59;;;;;;;3.17;1.30;;;;;;;7.25;96.28;98073.28;18279962;32;20050;-57
